Time;durP1;ratioP1;P1;durP2;ratioP2;P2;SDS_P1;SDS_P2;PMS_P1;PMS_P2;Temp;Humidity;BMP_temperature;BMP_pressure;BME280_temperature;BME280_humidity;BME280_pressure;Samples;Min_cycle;Max_cycle;Signal;HPM_P1;HPM_P2
2023/01/17 00:02:05;;;;;;;1.47;1.37;;;4.80;99.90;;;;;;5035028;28;20441;-66
2023/01/17 00:10:32;;;;;;;2.03;1.80;;;4.70;99.90;;;;;;5030543;28;20807;-67
2023/01/17 00:13:00;;;;;;;3.27;1.33;;;4.70;99.90;;;;;;5037266;28;20422;-67
2023/01/17 00:15:27;;;;;;;1.70;1.53;;;4.70;99.90;;;;;;5037989;28;20504;-67
2023/01/17 00:17:53;;;;;;;1.70;1.60;;;4.70;99.90;;;;;;5037364;28;20716;-67
2023/01/17 00:26:12;;;;;;;2.10;1.60;;;4.60;99.90;;;;;;5033578;28;20501;-67
2023/01/17 01:35:48;;;;;;;3.40;2.07;;;4.30;99.90;;;;;;5033656;28;20484;-65
2023/01/17 01:38:20;;;;;;;1.37;1.27;;;4.20;99.90;;;;;;5032908;28;20492;-65
2023/01/17 01:40:49;;;;;;;4.30;1.67;;;4.20;99.90;;;;;;5033455;28;20410;-65
2023/01/17 01:43:17;;;;;;;3.07;1.60;;;4.10;99.90;;;;;;5034222;28;20476;-66
2023/01/17 01:45:56;;;;;;;2.20;1.43;;;4.10;99.90;;;;;;5033857;28;20477;-66
2023/01/17 01:48:47;;;;;;;1.97;1.70;;;4.00;99.90;;;;;;5021027;28;20791;-67
2023/01/17 01:51:19;;;;;;;1.73;1.63;;;4.00;99.90;;;;;;5031995;28;20398;-66
2023/01/17 01:53:47;;;;;;;3.10;2.37;;;3.90;99.90;;;;;;5036165;28;20503;-66
2023/01/17 01:56:14;;;;;;;1.87;1.73;;;3.90;99.90;;;;;;5035430;28;20432;-66
2023/01/17 01:58:44;;;;;;;1.80;1.70;;;3.90;99.90;;;;;;5035835;28;20449;-66
2023/01/17 02:01:10;;;;;;;3.80;1.77;;;4.00;99.90;;;;;;5035987;28;20832;-66
2023/01/17 02:03:38;;;;;;;1.63;1.50;;;4.10;99.90;;;;;;5032756;28;20492;-68
2023/01/17 02:06:39;;;;;;;2.27;2.07;;;4.10;99.90;;;;;;5028361;28;20298;-66
2023/01/17 02:09:08;;;;;;;3.77;1.90;;;4.10;99.90;;;;;;5017040;28;20406;-66
2023/01/17 02:11:36;;;;;;;4.07;2.57;;;4.10;99.90;;;;;;5035843;28;20472;-66
2023/01/17 02:14:01;;;;;;;1.60;1.50;;;4.10;99.90;;;;;;5035558;28;20901;-66
2023/01/17 02:16:43;;;;;;;4.13;2.50;;;4.10;99.90;;;;;;5035050;28;20426;-66
2023/01/17 02:19:39;;;;;;;2.50;2.00;;;4.20;99.90;;;;;;5028354;28;20656;-66
2023/01/17 02:22:42;;;;;;;2.47;2.00;;;4.20;99.90;;;;;;5028429;28;20431;-67
2023/01/17 02:25:39;;;;;;;2.47;1.87;;;4.30;99.90;;;;;;5028094;28;20454;-65
2023/01/17 02:28:34;;;;;;;2.33;2.10;;;4.30;99.90;;;;;;5034946;28;20463;-66
2023/01/17 02:31:26;;;;;;;3.87;2.10;;;4.20;99.90;;;;;;5025285;28;20422;-67
2023/01/17 02:34:33;;;;;;;2.30;2.10;;;4.20;99.90;;;;;;5035035;28;20446;-66
2023/01/17 02:37:09;;;;;;;1.83;1.43;;;4.20;99.90;;;;;;5002470;28;20521;-67
2023/01/17 02:40:05;;;;;;;2.50;2.23;;;4.20;99.90;;;;;;5033359;28;20421;-66
2023/01/17 02:42:37;;;;;;;1.97;1.57;;;4.10;99.90;;;;;;5020901;28;20502;-66
2023/01/17 02:45:04;;;;;;;2.00;1.53;;;4.10;99.90;;;;;;5026537;28;20529;-66
2023/01/17 02:47:30;;;;;;;1.30;1.20;;;4.10;99.90;;;;;;5034044;28;20421;-67
2023/01/17 02:50:08;;;;;;;3.23;1.90;;;4.10;99.90;;;;;;5033649;28;20410;-66
2023/01/17 02:53:01;;;;;;;3.17;1.50;;;4.00;99.90;;;;;;5033774;28;20411;-66
2023/01/17 02:56:00;;;;;;;3.20;1.90;;;4.10;99.90;;;;;;5031130;28;20532;-66
2023/01/17 02:58:38;;;;;;;1.97;1.77;;;4.20;99.90;;;;;;5032212;28;20406;-66
2023/01/17 03:01:07;;;;;;;2.50;1.70;;;4.30;99.90;;;;;;5026625;28;20421;-65
2023/01/17 03:03:50;;;;;;;2.50;2.03;;;4.30;99.90;;;;;;5032418;28;20407;-66
2023/01/17 03:06:45;;;;;;;1.73;1.63;;;4.40;99.90;;;;;;5028454;28;20442;-67
2023/01/17 03:09:13;;;;;;;3.17;1.93;;;4.40;99.90;;;;;;5027848;28;20406;-67
2023/01/17 03:11:38;;;;;;;2.03;1.83;;;4.50;99.90;;;;;;5026719;28;20427;-67
2023/01/17 03:14:04;;;;;;;1.93;1.73;;;4.50;99.90;;;;;;5031879;28;20411;-67
2023/01/17 03:16:32;;;;;;;1.70;1.60;;;4.60;99.90;;;;;;5031963;28;20605;-66
2023/01/17 03:18:58;;;;;;;2.63;2.43;;;4.60;99.90;;;;;;5025899;28;20171;-66
2023/01/17 03:21:23;;;;;;;2.30;2.10;;;4.60;99.90;;;;;;5033309;28;20706;-66
2023/01/17 03:23:49;;;;;;;2.60;2.10;;;4.60;99.90;;;;;;5033230;28;20195;-66
2023/01/17 03:26:15;;;;;;;2.07;1.87;;;4.60;99.90;;;;;;5029776;28;20200;-66
2023/01/17 03:28:41;;;;;;;2.33;1.60;;;4.60;99.90;;;;;;5031010;28;20745;-66
2023/01/17 03:31:07;;;;;;;3.07;2.20;;;4.50;99.90;;;;;;5032477;28;20421;-67
2023/01/17 03:33:33;;;;;;;1.97;1.87;;;4.60;99.90;;;;;;5034072;28;20172;-67
2023/01/17 03:35:58;;;;;;;1.70;1.60;;;4.50;99.90;;;;;;5033773;28;20203;-67
2023/01/17 03:38:25;;;;;;;1.73;1.60;;;4.60;99.90;;;;;;5034440;28;20413;-67
2023/01/17 03:40:51;;;;;;;1.77;1.40;;;4.60;99.90;;;;;;5033953;28;20183;-67
2023/01/17 03:43:16;;;;;;;2.10;1.90;;;4.60;99.90;;;;;;5034064;28;20896;-67
2023/01/17 03:45:42;;;;;;;2.10;1.80;;;4.70;99.90;;;;;;5027941;28;20208;-66
2023/01/17 03:48:08;;;;;;;2.97;2.30;;;4.70;99.90;;;;;;5033606;28;20175;-66
2023/01/17 03:50:33;;;;;;;3.17;1.97;;;4.70;99.90;;;;;;5034303;28;20178;-66
2023/01/17 03:52:59;;;;;;;2.53;1.93;;;4.70;99.90;;;;;;5034332;28;20171;-66
2023/01/17 03:55:24;;;;;;;1.60;1.50;;;4.70;99.90;;;;;;5034065;28;20238;-66
2023/01/17 03:57:50;;;;;;;2.47;1.73;;;4.70;99.90;;;;;;5033639;28;20204;-66
2023/01/17 04:00:16;;;;;;;2.23;1.60;;;4.80;99.90;;;;;;5035149;28;20183;-66
2023/01/17 04:02:41;;;;;;;2.00;1.50;;;4.80;99.90;;;;;;5035605;28;20187;-66
2023/01/17 04:05:07;;;;;;;1.47;1.37;;;4.80;99.90;;;;;;5035207;28;20491;-66
2023/01/17 04:07:33;;;;;;;2.70;1.37;;;4.90;99.90;;;;;;5033773;28;20171;-66
2023/01/17 04:09:58;;;;;;;1.47;1.33;;;4.80;99.90;;;;;;5037034;28;20456;-66
2023/01/17 04:12:24;;;;;;;1.20;1.10;;;4.90;99.90;;;;;;5036710;28;20167;-66
2023/01/17 04:14:50;;;;;;;1.20;1.10;;;4.90;99.90;;;;;;5036758;28;20211;-66
2023/01/17 04:17:18;;;;;;;1.30;1.20;;;4.90;99.90;;;;;;5037031;28;20187;-66
2023/01/17 04:19:44;;;;;;;1.40;1.23;;;4.90;99.90;;;;;;5021741;28;20180;-67
2023/01/17 04:22:10;;;;;;;1.20;1.10;;;4.90;99.90;;;;;;5035605;28;20468;-66
2023/01/17 04:24:35;;;;;;;4.77;1.17;;;5.00;99.90;;;;;;5035902;28;20811;-66
2023/01/17 04:27:03;;;;;;;1.73;1.20;;;5.00;99.90;;;;;;5035368;28;20195;-66
2023/01/17 04:29:29;;;;;;;1.00;1.00;;;5.00;99.90;;;;;;5036258;28;20541;-66
2023/01/17 04:31:54;;;;;;;2.20;1.30;;;5.00;99.90;;;;;;5037021;28;20520;-66
2023/01/17 04:34:20;;;;;;;1.20;0.90;;;5.00;99.90;;;;;;5031244;28;20633;-66
2023/01/17 04:36:46;;;;;;;1.53;1.20;;;5.00;99.90;;;;;;5019577;28;20704;-66
2023/01/17 04:39:11;;;;;;;1.60;1.10;;;5.00;99.90;;;;;;5036553;28;20175;-66
2023/01/17 04:41:37;;;;;;;2.30;1.10;;;5.00;99.90;;;;;;5036700;28;20168;-67
2023/01/17 04:44:03;;;;;;;1.03;1.03;;;5.00;99.90;;;;;;5028448;28;20199;-68
2023/01/17 04:46:28;;;;;;;1.20;1.10;;;5.00;99.90;;;;;;5022226;28;20230;-67
2023/01/17 04:48:54;;;;;;;1.10;1.00;;;5.00;99.90;;;;;;5035853;28;20496;-66
2023/01/17 04:51:20;;;;;;;1.37;1.27;;;5.00;99.90;;;;;;5031478;28;20172;-66
2023/01/17 04:53:45;;;;;;;1.37;1.10;;;5.00;99.90;;;;;;5016747;28;20171;-66
2023/01/17 04:56:11;;;;;;;1.47;1.20;;;5.00;99.90;;;;;;5033242;28;20233;-66
2023/01/17 04:58:36;;;;;;;1.10;1.10;;;5.00;99.90;;;;;;5028011;28;20204;-66
2023/01/17 05:01:04;;;;;;;1.13;1.03;;;5.00;99.90;;;;;;5033876;28;20385;-67
2023/01/17 05:03:30;;;;;;;0.87;0.87;;;5.00;99.90;;;;;;5033804;28;20179;-66
2023/01/17 05:05:56;;;;;;;1.13;1.00;;;5.00;99.90;;;;;;5035542;28;20816;-66
2023/01/17 05:08:21;;;;;;;1.80;1.10;;;5.00;99.90;;;;;;5033497;28;20513;-67
2023/01/17 05:10:47;;;;;;;1.37;1.27;;;5.00;99.90;;;;;;5034856;28;20639;-66
2023/01/17 05:13:13;;;;;;;1.20;1.10;;;5.00;99.90;;;;;;5034476;28;20794;-66
2023/01/17 05:15:39;;;;;;;1.20;1.10;;;5.00;99.90;;;;;;5034705;28;20187;-66
2023/01/17 05:18:07;;;;;;;1.03;1.03;;;5.00;99.90;;;;;;5034623;28;20638;-65
2023/01/17 05:20:34;;;;;;;1.40;1.20;;;5.00;99.90;;;;;;5034284;28;20414;-67
2023/01/17 05:23:00;;;;;;;1.20;1.10;;;5.00;99.90;;;;;;5034813;28;20489;-65
2023/01/17 05:25:31;;;;;;;1.60;1.50;;;5.00;99.90;;;;;;5026523;28;20478;-67
2023/01/17 05:28:00;;;;;;;1.00;0.90;;;5.00;99.90;;;;;;5034244;28;20438;-66
2023/01/17 05:30:27;;;;;;;1.67;1.30;;;5.00;99.90;;;;;;5033897;28;20445;-67
2023/01/17 05:32:54;;;;;;;1.20;1.10;;;5.00;99.90;;;;;;5034338;28;20498;-66
2023/01/17 05:35:23;;;;;;;1.13;1.03;;;5.00;99.90;;;;;;5016854;28;20436;-67
2023/01/17 05:37:50;;;;;;;1.57;1.47;;;5.00;99.90;;;;;;5035216;28;20422;-66
2023/01/17 05:40:17;;;;;;;1.30;1.20;;;5.00;99.90;;;;;;5021798;28;20806;-66
2023/01/17 05:42:48;;;;;;;1.60;1.50;;;5.00;99.90;;;;;;5014559;28;20505;-66
2023/01/17 05:45:15;;;;;;;1.53;1.33;;;5.00;99.90;;;;;;5033963;28;20561;-65
2023/01/17 05:47:45;;;;;;;1.50;1.40;;;5.00;99.90;;;;;;5033727;28;20851;-66
2023/01/17 05:50:18;;;;;;;1.03;0.93;;;5.00;99.90;;;;;;5033430;28;20443;-65
2023/01/17 05:52:57;;;;;;;1.10;1.00;;;5.00;99.90;;;;;;5034080;28;20476;-66
2023/01/17 05:55:26;;;;;;;1.23;1.13;;;5.00;99.90;;;;;;5023258;28;20435;-66
2023/01/17 05:57:52;;;;;;;1.37;1.27;;;5.00;99.90;;;;;;5032029;28;20425;-66
2023/01/17 06:00:19;;;;;;;1.00;1.00;;;5.00;99.90;;;;;;5033351;28;20916;-65
2023/01/17 06:02:45;;;;;;;1.30;1.20;;;5.00;99.90;;;;;;5033429;28;20411;-65
2023/01/17 06:05:11;;;;;;;1.13;1.03;;;5.00;99.90;;;;;;5033442;28;20449;-67
2023/01/17 06:07:37;;;;;;;1.50;1.40;;;5.10;99.90;;;;;;5033660;28;20417;-65
2023/01/17 06:10:03;;;;;;;1.50;1.40;;;5.10;99.90;;;;;;5033197;28;20406;-66
2023/01/17 06:12:29;;;;;;;1.40;1.30;;;5.10;99.90;;;;;;5033880;28;20709;-65
2023/01/17 06:14:54;;;;;;;1.63;1.53;;;5.10;99.90;;;;;;5029578;28;20434;-65
2023/01/17 06:17:20;;;;;;;1.40;1.30;;;5.10;99.90;;;;;;5030374;28;20207;-65
2023/01/17 06:19:46;;;;;;;1.10;1.00;;;5.10;99.90;;;;;;5031656;28;20290;-66
2023/01/17 06:22:11;;;;;;;1.90;1.80;;;5.00;99.90;;;;;;5032699;28;20241;-67
2023/01/17 06:24:37;;;;;;;1.60;1.50;;;5.10;99.90;;;;;;5031259;28;20200;-66
2023/01/17 06:27:02;;;;;;;1.50;1.40;;;5.00;99.90;;;;;;5015426;28;20191;-66
2023/01/17 06:29:28;;;;;;;2.10;1.80;;;5.00;99.90;;;;;;5032803;28;20179;-66
2023/01/17 06:31:53;;;;;;;2.00;1.90;;;5.00;99.90;;;;;;5029550;28;20168;-66
2023/01/17 06:34:19;;;;;;;2.67;1.77;;;5.00;99.90;;;;;;5033985;28;21268;-66
2023/01/17 06:36:45;;;;;;;1.87;1.77;;;5.00;99.90;;;;;;5033639;28;20559;-66
2023/01/17 06:39:10;;;;;;;1.90;1.70;;;5.10;99.90;;;;;;5033750;28;20179;-66
2023/01/17 06:41:36;;;;;;;1.90;1.73;;;5.10;99.90;;;;;;5028514;28;20172;-66
2023/01/17 06:44:02;;;;;;;2.40;1.70;;;5.10;99.90;;;;;;5033546;28;20481;-66
2023/01/17 06:46:28;;;;;;;1.40;1.30;;;5.10;99.90;;;;;;5029414;28;20281;-65
2023/01/17 06:48:54;;;;;;;1.83;1.73;;;5.00;99.90;;;;;;5033470;28;20410;-66
2023/01/17 06:51:20;;;;;;;1.63;1.53;;;5.10;99.90;;;;;;5033628;28;20237;-66
2023/01/17 06:53:47;;;;;;;1.60;1.50;;;5.00;99.90;;;;;;5033754;28;20425;-66
2023/01/17 06:56:13;;;;;;;1.80;1.60;;;5.00;99.90;;;;;;5018035;28;20202;-67
2023/01/17 06:58:38;;;;;;;1.87;1.40;;;5.00;99.90;;;;;;5031441;28;20923;-67
2023/01/17 07:01:06;;;;;;;2.70;1.83;;;5.00;99.90;;;;;;5033415;28;20199;-66
2023/01/17 07:03:32;;;;;;;1.93;1.83;;;5.00;99.90;;;;;;5033851;28;20176;-66
2023/01/17 07:06:00;;;;;;;2.80;2.60;;;5.00;99.90;;;;;;5033461;28;20916;-66
2023/01/17 07:08:26;;;;;;;2.93;1.77;;;5.00;99.90;;;;;;5020331;28;20171;-68
2023/01/17 07:10:57;;;;;;;1.50;1.30;;;5.00;99.90;;;;;;5027596;28;20419;-66
2023/01/17 07:13:23;;;;;;;2.20;1.80;;;5.00;99.90;;;;;;5032902;28;20911;-67
2023/01/17 07:15:48;;;;;;;1.77;1.67;;;5.00;99.90;;;;;;5031887;28;20549;-67
2023/01/17 07:18:19;;;;;;;3.60;1.83;;;5.00;99.90;;;;;;5033937;28;20199;-66
2023/01/17 07:20:45;;;;;;;1.83;1.70;;;4.90;99.90;;;;;;5032194;28;20676;-65
2023/01/17 07:23:11;;;;;;;2.23;2.03;;;5.00;99.90;;;;;;5033853;28;20410;-66
2023/01/17 07:25:36;;;;;;;2.00;1.80;;;4.90;99.90;;;;;;5032801;28;20848;-65
2023/01/17 07:28:02;;;;;;;1.93;1.83;;;4.90;99.90;;;;;;5034395;28;20410;-66
2023/01/17 07:30:28;;;;;;;2.20;1.50;;;4.90;99.90;;;;;;5032763;28;20212;-67
2023/01/17 07:32:54;;;;;;;2.07;1.60;;;4.90;99.90;;;;;;5031976;28;20175;-68
2023/01/17 07:35:20;;;;;;;2.63;2.43;;;4.90;99.90;;;;;;5035198;28;20200;-67
2023/01/17 07:37:48;;;;;;;1.83;1.33;;;4.90;99.90;;;;;;5037879;28;20446;-67
2023/01/17 07:40:16;;;;;;;2.30;2.10;;;4.90;99.90;;;;;;5037203;28;20427;-67
2023/01/17 07:42:42;;;;;;;1.70;1.60;;;5.00;99.90;;;;;;5036266;28;20418;-66
2023/01/17 07:45:09;;;;;;;1.70;1.60;;;4.90;99.90;;;;;;5036678;28;20839;-66
2023/01/17 07:47:34;;;;;;;1.73;1.60;;;5.00;99.90;;;;;;5037827;28;20422;-66
2023/01/17 07:50:00;;;;;;;2.53;1.90;;;5.00;99.90;;;;;;5035709;28;20436;-66
2023/01/17 07:52:26;;;;;;;1.83;1.73;;;5.00;99.90;;;;;;5036935;28;20607;-66
2023/01/17 07:54:52;;;;;;;1.73;1.63;;;5.00;99.90;;;;;;5030695;28;20505;-67
2023/01/17 07:57:17;;;;;;;1.60;1.50;;;5.00;99.90;;;;;;5037244;28;20457;-66
2023/01/17 07:59:43;;;;;;;1.53;1.43;;;5.00;99.90;;;;;;5036141;28;20206;-66
2023/01/17 08:02:17;;;;;;;2.43;1.80;;;5.00;99.90;;;;;;5036317;28;20206;-66
2023/01/17 08:04:42;;;;;;;1.80;1.70;;;5.00;99.90;;;;;;5035605;28;20203;-67
2023/01/17 08:07:08;;;;;;;2.90;1.80;;;5.10;99.90;;;;;;5032926;28;20465;-66
2023/01/17 08:09:34;;;;;;;2.00;1.77;;;5.10;99.90;;;;;;5033195;28;20179;-66
2023/01/17 08:12:00;;;;;;;2.70;1.60;;;5.10;99.90;;;;;;5036150;28;20275;-65
2023/01/17 08:14:25;;;;;;;1.77;1.67;;;5.10;99.90;;;;;;5036323;28;20207;-66
2023/01/17 08:16:52;;;;;;;2.23;2.03;;;5.10;99.90;;;;;;5036837;28;20437;-66
2023/01/17 08:19:17;;;;;;;3.60;1.83;;;5.10;99.90;;;;;;5037113;28;20180;-66
2023/01/17 08:21:43;;;;;;;1.97;1.87;;;5.20;99.90;;;;;;5022480;28;20487;-67
2023/01/17 08:24:12;;;;;;;1.73;1.63;;;5.10;99.90;;;;;;5034782;28;20191;-67
2023/01/17 08:26:38;;;;;;;2.10;1.90;;;5.10;99.90;;;;;;5028996;28;20187;-65
2023/01/17 08:29:04;;;;;;;3.60;1.67;;;5.10;99.90;;;;;;5033845;28;20422;-67
2023/01/17 08:31:32;;;;;;;3.27;1.60;;;5.20;99.90;;;;;;5031318;28;20452;-66
2023/01/17 08:33:58;;;;;;;1.77;1.40;;;5.20;99.90;;;;;;5031277;28;20454;-66
2023/01/17 08:36:24;;;;;;;1.57;1.37;;;5.10;99.90;;;;;;5033984;28;20547;-66
2023/01/17 08:38:51;;;;;;;1.70;1.60;;;5.10;99.90;;;;;;5033518;28;20171;-66
2023/01/17 08:41:18;;;;;;;1.50;1.40;;;5.10;99.90;;;;;;5033388;28;20418;-66
2023/01/17 08:43:46;;;;;;;2.23;2.00;;;5.20;99.90;;;;;;5033880;28;20434;-67
2023/01/17 08:46:12;;;;;;;1.33;1.23;;;5.20;99.90;;;;;;5035418;28;20446;-66
2023/01/17 08:48:38;;;;;;;2.10;1.90;;;5.20;99.90;;;;;;5036295;28;20903;-67
2023/01/17 08:51:03;;;;;;;1.63;1.53;;;5.30;99.90;;;;;;5035644;28;20176;-66
2023/01/17 08:53:29;;;;;;;1.60;1.50;;;5.30;99.90;;;;;;5036056;28;20176;-66
2023/01/17 08:56:02;;;;;;;2.47;2.20;;;5.30;99.90;;;;;;5035066;28;20282;-67
2023/01/17 08:58:29;;;;;;;1.40;1.20;;;5.40;99.90;;;;;;5020280;28;20596;-67
2023/01/17 09:01:03;;;;;;;1.27;1.17;;;5.40;99.90;;;;;;5036165;28;20415;-66
2023/01/17 09:03:29;;;;;;;1.73;1.40;;;5.40;99.90;;;;;;5031968;28;20416;-66
2023/01/17 09:06:12;;;;;;;1.30;1.20;;;5.40;99.90;;;;;;5035387;28;20480;-66
2023/01/17 09:08:39;;;;;;;1.33;1.23;;;5.50;99.90;;;;;;5056111;22;20535;-70
2023/01/17 09:11:10;;;;;;;3.27;1.60;;;5.60;99.90;;;;;;5032452;28;20414;-71
2023/01/17 09:13:36;;;;;;;2.57;2.37;;;5.60;99.90;;;;;;5032692;28;20402;-72
2023/01/17 09:16:02;;;;;;;1.60;1.17;;;5.60;99.90;;;;;;5022552;28;20512;-72
2023/01/17 09:18:29;;;;;;;4.17;1.70;;;5.60;99.90;;;;;;5032863;28;20870;-71
2023/01/17 09:20:57;;;;;;;1.87;1.77;;;5.70;99.90;;;;;;5023387;28;20462;-72
2023/01/17 09:23:24;;;;;;;2.03;1.93;;;5.80;99.90;;;;;;5030777;28;20411;-71
2023/01/17 09:25:58;;;;;;;2.20;1.50;;;5.90;99.90;;;;;;5031965;28;20611;-72
2023/01/17 09:28:25;;;;;;;1.90;1.20;;;5.80;99.90;;;;;;5031970;28;20434;-72
2023/01/17 09:30:51;;;;;;;1.43;1.27;;;5.90;99.90;;;;;;5032280;28;20561;-71
2023/01/17 09:33:16;;;;;;;1.60;1.50;;;5.90;99.90;;;;;;5016959;28;20456;-72
2023/01/17 09:35:43;;;;;;;1.13;1.03;;;6.00;99.90;;;;;;5031852;28;20414;-72
2023/01/17 09:38:09;;;;;;;0.80;0.80;;;6.00;99.90;;;;;;5031964;28;20507;-72
2023/01/17 09:40:40;;;;;;;1.43;1.30;;;6.00;99.90;;;;;;5026874;28;20516;-72
2023/01/17 09:43:22;;;;;;;9.20;1.17;;;5.90;99.90;;;;;;5031966;28;20406;-70
2023/01/17 09:45:48;;;;;;;1.90;1.33;;;5.80;99.90;;;;;;5031280;28;20549;-70
2023/01/17 09:48:20;;;;;;;0.90;0.90;;;5.80;99.90;;;;;;5032126;28;20441;-73
2023/01/17 09:51:11;;;;;;;1.10;1.00;;;5.60;99.90;;;;;;5031680;28;20411;-70
2023/01/17 09:53:40;;;;;;;1.13;1.03;;;5.50;99.90;;;;;;5031201;28;20442;-70
2023/01/17 09:56:18;;;;;;;1.00;1.00;;;5.50;99.90;;;;;;5018287;28;20422;-71
2023/01/17 09:59:18;;;;;;;1.37;1.27;;;5.40;99.90;;;;;;5030326;28;20762;-72
2023/01/17 10:02:16;;;;;;;0.90;0.90;;;5.50;99.90;;;;;;5029020;28;20876;-69
2023/01/17 10:05:15;;;;;;;1.23;1.10;;;5.50;99.90;;;;;;4966001;28;20458;-71
2023/01/17 10:08:03;;;;;;;1.20;1.10;;;5.50;99.90;;;;;;5029921;28;20545;-71
2023/01/17 10:11:01;;;;;;;4.50;1.00;;;5.60;99.90;;;;;;5030443;28;20434;-71
2023/01/17 10:13:45;;;;;;;0.80;0.80;;;5.60;99.90;;;;;;4982955;28;20460;-71
2023/01/17 10:16:48;;;;;;;1.30;1.20;;;5.30;99.90;;;;;;5027661;28;20410;-71
2023/01/17 10:19:25;;;;;;;1.17;1.00;;;5.40;99.90;;;;;;5023972;28;20448;-71
2023/01/17 10:22:00;;;;;;;2.00;1.30;;;5.40;99.90;;;;;;5029167;28;20417;-71
2023/01/17 10:24:47;;;;;;;1.10;1.00;;;5.30;99.90;;;;;;5030217;28;20556;-70
2023/01/17 10:27:33;;;;;;;1.27;1.10;;;5.40;99.90;;;;;;5024027;28;20426;-70
2023/01/17 10:30:03;;;;;;;0.90;0.90;;;5.40;99.90;;;;;;5024925;28;20402;-70
2023/01/17 10:32:31;;;;;;;1.07;0.90;;;5.40;99.90;;;;;;5025956;28;20406;-71
2023/01/17 10:35:03;;;;;;;1.13;1.10;;;5.40;99.90;;;;;;5029571;28;20432;-71
2023/01/17 10:37:41;;;;;;;0.77;0.77;;;5.30;99.90;;;;;;5012090;28;20412;-70
2023/01/17 10:40:22;;;;;;;0.90;0.90;;;5.20;99.90;;;;;;5027267;28;20437;-70
2023/01/17 10:42:54;;;;;;;0.80;0.80;;;5.20;99.90;;;;;;5030218;28;20509;-70
2023/01/17 10:45:27;;;;;;;0.90;0.90;;;5.00;99.90;;;;;;5029837;28;20563;-71
2023/01/17 10:48:10;;;;;;;1.73;1.10;;;5.00;99.90;;;;;;5027222;28;20798;-71
2023/01/17 10:50:58;;;;;;;0.60;0.60;;;5.10;99.90;;;;;;5029856;28;20505;-71
2023/01/17 10:53:51;;;;;;;1.07;0.87;;;5.10;99.90;;;;;;5030143;28;20749;-71
2023/01/17 10:56:22;;;;;;;1.03;0.93;;;5.10;99.90;;;;;;5024364;28;20441;-71
2023/01/17 10:58:53;;;;;;;1.10;1.00;;;5.10;99.90;;;;;;5029156;28;20426;-71
2023/01/17 11:01:20;;;;;;;1.07;0.93;;;5.10;99.90;;;;;;5016770;28;20896;-71
2023/01/17 11:03:49;;;;;;;0.77;0.77;;;5.10;99.90;;;;;;5029502;28;20419;-70
2023/01/17 11:06:22;;;;;;;0.83;0.83;;;5.10;99.90;;;;;;5025504;28;20434;-72
2023/01/17 11:08:58;;;;;;;1.90;0.87;;;5.00;99.90;;;;;;5030182;28;20454;-70
2023/01/17 11:11:31;;;;;;;0.73;0.73;;;4.90;99.90;;;;;;5034165;28;20414;-70
2023/01/17 11:14:00;;;;;;;0.70;0.70;;;4.90;99.90;;;;;;5033738;28;20788;-74
2023/01/17 11:16:30;;;;;;;1.03;0.93;;;4.80;99.90;;;;;;5036699;28;20449;-71
2023/01/17 11:19:23;;;;;;;1.13;1.00;;;4.80;99.90;;;;;;5041012;28;21000;-72
2023/01/17 11:22:00;;;;;;;0.80;0.80;;;4.80;99.90;;;;;;5032331;28;20424;-71
2023/01/17 11:24:40;;;;;;;1.63;0.90;;;4.80;99.90;;;;;;5032909;28;20496;-71
2023/01/17 11:27:21;;;;;;;0.70;0.70;;;4.80;99.90;;;;;;5026233;28;20402;-71
2023/01/17 11:29:47;;;;;;;1.03;0.93;;;4.80;99.90;;;;;;5017583;28;20735;-72
2023/01/17 11:32:33;;;;;;;1.10;1.00;;;4.80;99.90;;;;;;5038316;28;20420;-70
2023/01/17 11:35:42;;;;;;;1.30;0.90;;;4.60;99.90;;;;;;5030346;28;20179;-70
2023/01/17 11:38:20;;;;;;;0.70;0.70;;;4.20;99.90;;;;;;5028402;28;20483;-70
2023/01/17 11:40:48;;;;;;;1.53;0.97;;;4.20;99.90;;;;;;5030819;28;20442;-70
2023/01/17 11:43:20;;;;;;;1.10;0.90;;;4.20;99.90;;;;;;5033652;28;20417;-71
2023/01/17 11:46:13;;;;;;;1.37;0.80;;;4.10;99.90;;;;;;5033003;28;20453;-71
2023/01/17 11:48:39;;;;;;;1.03;0.93;;;3.70;99.90;;;;;;5032807;28;20441;-70
2023/01/17 11:51:19;;;;;;;2.63;1.50;;;3.40;99.90;;;;;;5022571;28;20506;-72
2023/01/17 11:53:48;;;;;;;1.40;1.30;;;3.30;99.90;;;;;;5032895;28;20232;-70
2023/01/17 11:56:26;;;;;;;4.43;1.20;;;3.30;99.90;;;;;;5031633;28;20473;-69
2023/01/17 11:59:12;;;;;;;4.60;1.70;;;3.50;99.90;;;;;;5032363;28;20920;-70
2023/01/17 12:01:56;;;;;;;2.97;1.93;;;3.60;99.90;;;;;;5026640;28;20517;-70
2023/01/17 12:04:39;;;;;;;3.00;1.90;;;3.90;99.90;;;;;;5027947;28;20512;-71
2023/01/17 12:07:25;;;;;;;1.53;1.40;;;4.00;99.90;;;;;;5028177;28;20521;-71
2023/01/17 12:09:56;;;;;;;1.63;1.53;;;4.20;99.90;;;;;;5032907;28;20523;-71
2023/01/17 12:15:43;;;;;;;1.33;1.20;;;4.30;99.90;;;;;;5028156;28;20499;-70
2023/01/17 12:18:20;;;;;;;1.60;1.50;;;4.10;99.90;;;;;;5023008;28;20509;-71
2023/01/17 12:21:11;;;;;;;1.80;1.47;;;4.00;99.90;;;;;;5029021;28;20441;-71
2023/01/17 12:23:59;;;;;;;1.10;1.00;;;4.10;99.90;;;;;;5037014;28;20401;-70
2023/01/17 12:26:49;;;;;;;1.30;1.20;;;4.20;99.90;;;;;;5032176;28;20445;-70
2023/01/17 12:29:48;;;;;;;1.33;1.23;;;4.20;99.90;;;;;;5018522;28;20447;-69
2023/01/17 12:32:48;;;;;;;2.80;1.50;;;4.20;99.90;;;;;;5029040;28;20403;-69
2023/01/17 12:35:21;;;;;;;1.30;1.20;;;4.40;99.90;;;;;;5026433;28;20745;-70
2023/01/17 12:37:52;;;;;;;3.40;1.40;;;4.50;99.90;;;;;;5030737;28;20417;-72
2023/01/17 12:40:25;;;;;;;2.23;1.33;;;4.50;99.90;;;;;;5032359;28;20417;-69
2023/01/17 12:42:57;;;;;;;2.40;1.67;;;4.60;99.90;;;;;;5031070;28;20500;-71
2023/01/17 12:45:31;;;;;;;1.40;1.23;;;4.60;99.90;;;;;;5030577;28;20470;-70
2023/01/17 12:48:05;;;;;;;1.20;1.10;;;4.60;99.90;;;;;;5031924;28;20426;-71
2023/01/17 12:50:43;;;;;;;1.17;1.07;;;4.60;99.90;;;;;;5031796;28;20527;-69
2023/01/17 12:53:21;;;;;;;3.40;1.00;;;4.70;99.90;;;;;;5025251;28;20421;-69
2023/01/17 12:56:07;;;;;;;1.57;1.43;;;4.60;99.90;;;;;;5031856;28;20788;-70
2023/01/17 12:58:41;;;;;;;4.70;1.30;;;4.70;99.90;;;;;;5031880;28;20529;-71
2023/01/17 13:01:30;;;;;;;1.73;1.10;;;4.80;99.90;;;;;;5030688;28;20431;-70
2023/01/17 13:04:35;;;;;;;1.43;1.00;;;4.90;99.90;;;;;;5031361;28;20753;-70
2023/01/17 13:07:17;;;;;;;1.50;1.30;;;4.70;99.90;;;;;;5024280;28;20406;-71
2023/01/17 13:09:47;;;;;;;5.93;1.87;;;4.90;99.90;;;;;;5031225;28;20529;-71
2023/01/17 13:12:16;;;;;;;2.30;1.57;;;4.80;99.90;;;;;;5031717;28;20956;-71
2023/01/17 13:14:45;;;;;;;1.50;1.40;;;4.80;99.90;;;;;;5031471;28;20444;-70
2023/01/17 13:17:31;;;;;;;1.67;1.20;;;4.80;99.90;;;;;;5025760;28;20464;-71
2023/01/17 13:20:06;;;;;;;7.40;1.27;;;4.80;99.90;;;;;;5031431;28;20665;-71
2023/01/17 13:22:32;;;;;;;6.60;1.47;;;5.00;99.90;;;;;;5031571;28;20402;-71
2023/01/17 13:24:59;;;;;;;1.23;1.00;;;5.10;99.90;;;;;;5036426;28;20771;-71
2023/01/17 13:28:02;;;;;;;1.30;1.20;;;5.00;99.90;;;;;;5031406;28;20407;-70
2023/01/17 13:30:33;;;;;;;1.20;1.07;;;5.00;99.90;;;;;;5027759;28;20410;-69
2023/01/17 13:33:05;;;;;;;1.30;1.10;;;5.00;99.90;;;;;;5006381;28;20434;-70
2023/01/17 13:36:05;;;;;;;2.43;1.50;;;4.90;99.90;;;;;;5031379;28;20836;-71
2023/01/17 13:38:56;;;;;;;2.73;1.60;;;5.20;99.90;;;;;;5029477;28;20971;-72
2023/01/17 13:41:43;;;;;;;2.10;1.20;;;5.20;99.90;;;;;;5026301;28;20428;-72
2023/01/17 13:44:20;;;;;;;3.53;1.63;;;5.10;99.90;;;;;;5024258;28;20464;-71
2023/01/17 13:47:05;;;;;;;1.33;1.23;;;4.90;99.90;;;;;;5030754;28;20495;-71
2023/01/17 13:49:39;;;;;;;1.30;1.20;;;4.80;99.90;;;;;;5030251;28;20481;-71
2023/01/17 13:52:25;;;;;;;3.43;1.30;;;4.70;99.90;;;;;;5027191;28;20413;-72
2023/01/17 13:54:57;;;;;;;6.70;1.70;;;4.70;99.90;;;;;;5031406;28;20749;-70
2023/01/17 13:57:25;;;;;;;1.97;1.40;;;4.70;99.90;;;;;;5030443;28;20402;-70
2023/01/17 13:59:52;;;;;;;1.70;1.37;;;4.70;99.90;;;;;;5030261;28;21071;-70
2023/01/17 14:02:30;;;;;;;2.93;1.17;;;4.80;99.90;;;;;;5030472;28;20399;-71
2023/01/17 14:05:28;;;;;;;1.90;1.43;;;4.90;99.90;;;;;;5030632;28;20519;-71
2023/01/17 14:08:04;;;;;;;2.40;1.30;;;5.00;99.90;;;;;;4977187;28;20477;-71
2023/01/17 14:10:45;;;;;;;2.03;1.20;;;5.00;99.90;;;;;;5026783;28;20450;-70
2023/01/17 14:13:34;;;;;;;2.13;1.50;;;4.90;99.90;;;;;;5024022;28;20408;-71
2023/01/17 14:16:02;;;;;;;1.40;1.30;;;4.90;99.90;;;;;;5028773;28;20767;-70
2023/01/17 14:18:42;;;;;;;4.77;1.60;;;4.90;99.90;;;;;;5030386;28;20430;-70
2023/01/17 14:21:31;;;;;;;2.80;1.30;;;4.90;99.90;;;;;;5025645;28;20500;-70
2023/01/17 14:24:13;;;;;;;1.50;1.40;;;4.90;99.90;;;;;;5031072;28;20579;-70
2023/01/17 14:27:12;;;;;;;9.07;1.73;;;5.00;99.90;;;;;;5024759;28;20580;-71
2023/01/17 14:29:55;;;;;;;1.00;0.90;;;5.00;99.90;;;;;;5028762;28;20434;-71
2023/01/17 14:32:26;;;;;;;2.40;0.97;;;5.10;99.90;;;;;;5025956;28;20421;-71
2023/01/17 14:34:52;;;;;;;6.50;1.30;;;5.00;99.90;;;;;;5030051;28;20418;-71
2023/01/17 14:37:35;;;;;;;1.43;1.33;;;4.90;99.90;;;;;;5016736;28;20454;-70
2023/01/17 14:40:01;;;;;;;3.07;1.40;;;4.90;99.90;;;;;;5029846;28;20418;-75
2023/01/17 14:42:29;;;;;;;2.33;1.20;;;5.00;99.90;;;;;;5026891;28;20934;-70
2023/01/17 14:45:05;;;;;;;1.63;1.30;;;5.00;99.90;;;;;;5030508;28;20454;-66
2023/01/17 14:47:34;;;;;;;1.47;1.07;;;4.90;99.90;;;;;;5030134;28;20489;-73
2023/01/17 14:50:18;;;;;;;3.10;1.70;;;4.90;99.90;;;;;;5007449;28;20403;-70